sensor_id;sensor_type;location;lat;lon;timestamp;temperature;humidity
21149;DHT22;10732;51.472;6.466;2022-12-24T00:02:21;10.30;99.90
21149;DHT22;10732;51.472;6.466;2022-12-24T00:04:47;10.30;99.90
21149;DHT22;10732;51.472;6.466;2022-12-24T00:07:12;10.30;99.90
21149;DHT22;10732;51.472;6.466;2022-12-24T00:09:38;10.20;99.90
21149;DHT22;10732;51.472;6.466;2022-12-24T00:12:04;10.20;99.90
21149;DHT22;10732;51.472;6.466;2022-12-24T00:14:30;10.10;99.90
21149;DHT22;10732;51.472;6.466;2022-12-24T00:16:55;10.10;99.90
21149;DHT22;10732;51.472;6.466;2022-12-24T00:19:21;10.10;99.90
21149;DHT22;10732;51.472;6.466;2022-12-24T00:21:46;10.10;99.90
21149;DHT22;10732;51.472;6.466;2022-12-24T00:24:12;10.10;99.90
21149;DHT22;10732;51.472;6.466;2022-12-24T00:26:37;10.10;99.90
21149;DHT22;10732;51.472;6.466;2022-12-24T00:29:03;10.10;99.90
21149;DHT22;10732;51.472;6.466;2022-12-24T00:31:28;10.00;99.90
21149;DHT22;10732;51.472;6.466;2022-12-24T00:33:54;9.90;99.90
21149;DHT22;10732;51.472;6.466;2022-12-24T00:36:20;9.90;99.90
21149;DHT22;10732;51.472;6.466;2022-12-24T00:38:46;9.80;99.90
21149;DHT22;10732;51.472;6.466;2022-12-24T00:41:12;9.70;99.90
21149;DHT22;10732;51.472;6.466;2022-12-24T00:43:55;9.60;99.90
21149;DHT22;10732;51.472;6.466;2022-12-24T00:46:22;9.60;99.90
21149;DHT22;10732;51.472;6.466;2022-12-24T00:48:47;9.50;99.90
21149;DHT22;10732;51.472;6.466;2022-12-24T00:51:13;9.60;99.90
21149;DHT22;10732;51.472;6.466;2022-12-24T00:53:39;9.60;99.90
21149;DHT22;10732;51.472;6.466;2022-12-24T00:56:05;9.50;99.90
21149;DHT22;10732;51.472;6.466;2022-12-24T00:58:31;9.50;99.90
21149;DHT22;10732;51.472;6.466;2022-12-24T01:00:57;9.70;99.90
21149;DHT22;10732;51.472;6.466;2022-12-24T01:03:22;9.60;99.90
21149;DHT22;10732;51.472;6.466;2022-12-24T01:05:50;9.70;99.90
21149;DHT22;10732;51.472;6.466;2022-12-24T01:08:15;9.70;99.90
21149;DHT22;10732;51.472;6.466;2022-12-24T01:10:41;9.60;99.90
21149;DHT22;10732;51.472;6.466;2022-12-24T01:13:06;9.50;99.90
21149;DHT22;10732;51.472;6.466;2022-12-24T01:15:32;9.40;99.90
21149;DHT22;10732;51.472;6.466;2022-12-24T01:17:57;9.30;99.90
21149;DHT22;10732;51.472;6.466;2022-12-24T01:20:23;9.30;99.90
21149;DHT22;10732;51.472;6.466;2022-12-24T01:22:51;9.30;99.90
21149;DHT22;10732;51.472;6.466;2022-12-24T01:25:17;9.40;99.90
21149;DHT22;10732;51.472;6.466;2022-12-24T01:27:42;9.40;99.90
21149;DHT22;10732;51.472;6.466;2022-12-24T01:30:10;9.40;99.90
21149;DHT22;10732;51.472;6.466;2022-12-24T01:32:37;9.40;99.90
21149;DHT22;10732;51.472;6.466;2022-12-24T01:35:03;9.40;99.90
21149;DHT22;10732;51.472;6.466;2022-12-24T01:37:28;9.40;99.90
21149;DHT22;10732;51.472;6.466;2022-12-24T01:39:54;9.40;99.90
21149;DHT22;10732;51.472;6.466;2022-12-24T01:42:47;9.40;99.90
21149;DHT22;10732;51.472;6.466;2022-12-24T01:45:43;9.40;99.90
21149;DHT22;10732;51.472;6.466;2022-12-24T01:48:20;9.30;99.90
21149;DHT22;10732;51.472;6.466;2022-12-24T01:50:46;9.30;99.90
21149;DHT22;10732;51.472;6.466;2022-12-24T01:53:14;9.20;99.90
21149;DHT22;10732;51.472;6.466;2022-12-24T01:55:40;9.20;99.90
21149;DHT22;10732;51.472;6.466;2022-12-24T01:58:07;9.20;99.90
21149;DHT22;10732;51.472;6.466;2022-12-24T02:00:34;9.20;99.90
21149;DHT22;10732;51.472;6.466;2022-12-24T02:02:59;9.20;99.90
21149;DHT22;10732;51.472;6.466;2022-12-24T02:05:34;9.30;99.90
21149;DHT22;10732;51.472;6.466;2022-12-24T02:08:02;9.20;99.90
21149;DHT22;10732;51.472;6.466;2022-12-24T02:10:27;9.20;99.90
21149;DHT22;10732;51.472;6.466;2022-12-24T02:12:53;9.20;99.90
21149;DHT22;10732;51.472;6.466;2022-12-24T02:15:20;9.20;99.90
21149;DHT22;10732;51.472;6.466;2022-12-24T02:23:33;9.30;99.90
21149;DHT22;10732;51.472;6.466;2022-12-24T02:26:26;9.30;99.90
21149;DHT22;10732;51.472;6.466;2022-12-24T02:29:13;9.30;99.90
21149;DHT22;10732;51.472;6.466;2022-12-24T02:31:46;9.30;99.90
21149;DHT22;10732;51.472;6.466;2022-12-24T02:34:23;9.20;99.90
21149;DHT22;10732;51.472;6.466;2022-12-24T02:36:57;9.10;99.90
21149;DHT22;10732;51.472;6.466;2022-12-24T02:39:37;9.00;99.90
21149;DHT22;10732;51.472;6.466;2022-12-24T02:42:05;9.00;99.90
21149;DHT22;10732;51.472;6.466;2022-12-24T02:44:47;8.90;99.90
21149;DHT22;10732;51.472;6.466;2022-12-24T02:47:15;8.80;99.90
21149;DHT22;10732;51.472;6.466;2022-12-24T02:49:46;8.80;99.90
21149;DHT22;10732;51.472;6.466;2022-12-24T02:52:37;8.70;99.90
21149;DHT22;10732;51.472;6.466;2022-12-24T02:55:17;8.60;99.90
21149;DHT22;10732;51.472;6.466;2022-12-24T03:00:20;8.60;99.90
21149;DHT22;10732;51.472;6.466;2022-12-24T03:10:40;8.70;99.90
21149;DHT22;10732;51.472;6.466;2022-12-24T03:13:11;8.80;99.90
21149;DHT22;10732;51.472;6.466;2022-12-24T03:15:38;9.00;99.90
21149;DHT22;10732;51.472;6.466;2022-12-24T03:18:06;9.00;99.90
21149;DHT22;10732;51.472;6.466;2022-12-24T03:20:39;9.00;99.90
21149;DHT22;10732;51.472;6.466;2022-12-24T03:23:05;9.10;99.90
21149;DHT22;10732;51.472;6.466;2022-12-24T03:25:32;9.10;99.90
21149;DHT22;10732;51.472;6.466;2022-12-24T03:28:02;9.10;99.90
21149;DHT22;10732;51.472;6.466;2022-12-24T03:30:29;9.10;99.90
21149;DHT22;10732;51.472;6.466;2022-12-24T03:32:54;9.10;99.90
21149;DHT22;10732;51.472;6.466;2022-12-24T03:35:20;9.10;99.90
21149;DHT22;10732;51.472;6.466;2022-12-24T03:37:46;9.00;99.90
21149;DHT22;10732;51.472;6.466;2022-12-24T03:40:11;9.10;99.90
21149;DHT22;10732;51.472;6.466;2022-12-24T03:42:37;9.10;99.90
21149;DHT22;10732;51.472;6.466;2022-12-24T03:45:03;9.10;99.90
21149;DHT22;10732;51.472;6.466;2022-12-24T03:47:30;9.10;99.90
21149;DHT22;10732;51.472;6.466;2022-12-24T03:49:55;9.10;99.90
21149;DHT22;10732;51.472;6.466;2022-12-24T03:52:21;9.10;99.90
21149;DHT22;10732;51.472;6.466;2022-12-24T03:54:47;9.10;99.90
21149;DHT22;10732;51.472;6.466;2022-12-24T03:57:12;9.20;99.90
21149;DHT22;10732;51.472;6.466;2022-12-24T03:59:38;9.20;99.90
21149;DHT22;10732;51.472;6.466;2022-12-24T04:02:03;9.30;99.90
21149;DHT22;10732;51.472;6.466;2022-12-24T04:04:29;9.30;99.90
21149;DHT22;10732;51.472;6.466;2022-12-24T04:06:54;9.30;99.90
21149;DHT22;10732;51.472;6.466;2022-12-24T04:09:20;9.40;99.90
21149;DHT22;10732;51.472;6.466;2022-12-24T04:11:45;9.40;99.90
21149;DHT22;10732;51.472;6.466;2022-12-24T04:14:11;9.50;99.90
21149;DHT22;10732;51.472;6.466;2022-12-24T04:16:36;9.50;99.90
21149;DHT22;10732;51.472;6.466;2022-12-24T04:19:02;9.60;99.90
21149;DHT22;10732;51.472;6.466;2022-12-24T04:21:27;9.60;99.90
21149;DHT22;10732;51.472;6.466;2022-12-24T04:23:53;9.60;99.90
21149;DHT22;10732;51.472;6.466;2022-12-24T04:26:18;9.60;99.90
21149;DHT22;10732;51.472;6.466;2022-12-24T04:28:44;9.60;99.90
21149;DHT22;10732;51.472;6.466;2022-12-24T04:31:15;9.60;99.90
21149;DHT22;10732;51.472;6.466;2022-12-24T04:33:41;9.60;99.90
21149;DHT22;10732;51.472;6.466;2022-12-24T04:36:07;9.60;99.90
21149;DHT22;10732;51.472;6.466;2022-12-24T04:38:33;9.60;99.90
21149;DHT22;10732;51.472;6.466;2022-12-24T04:41:00;9.60;99.90
21149;DHT22;10732;51.472;6.466;2022-12-24T04:43:27;9.60;99.90
21149;DHT22;10732;51.472;6.466;2022-12-24T04:45:53;9.70;99.90
21149;DHT22;10732;51.472;6.466;2022-12-24T04:48:18;9.70;99.90
21149;DHT22;10732;51.472;6.466;2022-12-24T04:50:44;9.70;99.90
21149;DHT22;10732;51.472;6.466;2022-12-24T04:53:09;9.70;99.90
21149;DHT22;10732;51.472;6.466;2022-12-24T04:55:35;9.70;99.90
21149;DHT22;10732;51.472;6.466;2022-12-24T04:58:01;9.70;99.90
21149;DHT22;10732;51.472;6.466;2022-12-24T05:00:26;9.70;99.90
21149;DHT22;10732;51.472;6.466;2022-12-24T05:02:52;9.70;99.90
21149;DHT22;10732;51.472;6.466;2022-12-24T05:05:17;9.70;99.90
21149;DHT22;10732;51.472;6.466;2022-12-24T05:07:43;9.80;99.90
21149;DHT22;10732;51.472;6.466;2022-12-24T05:10:09;9.70;99.90
21149;DHT22;10732;51.472;6.466;2022-12-24T05:12:35;9.70;99.90
21149;DHT22;10732;51.472;6.466;2022-12-24T05:15:01;9.70;99.90
21149;DHT22;10732;51.472;6.466;2022-12-24T05:17:26;9.70;99.90
21149;DHT22;10732;51.472;6.466;2022-12-24T05:19:52;9.60;99.90
21149;DHT22;10732;51.472;6.466;2022-12-24T05:22:17;9.60;99.90
21149;DHT22;10732;51.472;6.466;2022-12-24T05:25:01;9.50;99.90
21149;DHT22;10732;51.472;6.466;2022-12-24T05:27:45;9.60;99.90
21149;DHT22;10732;51.472;6.466;2022-12-24T05:30:11;9.60;99.90
21149;DHT22;10732;51.472;6.466;2022-12-24T05:32:36;9.60;99.90
21149;DHT22;10732;51.472;6.466;2022-12-24T05:35:02;9.60;99.90
21149;DHT22;10732;51.472;6.466;2022-12-24T05:37:28;9.60;99.90
21149;DHT22;10732;51.472;6.466;2022-12-24T05:39:53;9.60;99.90
21149;DHT22;10732;51.472;6.466;2022-12-24T05:42:19;9.60;99.90
21149;DHT22;10732;51.472;6.466;2022-12-24T05:44:44;9.60;99.90
21149;DHT22;10732;51.472;6.466;2022-12-24T05:47:10;9.50;99.90
21149;DHT22;10732;51.472;6.466;2022-12-24T05:49:35;9.60;99.90
21149;DHT22;10732;51.472;6.466;2022-12-24T05:52:01;9.60;99.90
21149;DHT22;10732;51.472;6.466;2022-12-24T05:54:26;9.60;99.90
21149;DHT22;10732;51.472;6.466;2022-12-24T05:56:52;9.60;99.90
21149;DHT22;10732;51.472;6.466;2022-12-24T05:59:17;9.60;99.90
21149;DHT22;10732;51.472;6.466;2022-12-24T06:01:43;9.60;99.90
21149;DHT22;10732;51.472;6.466;2022-12-24T06:04:11;9.60;99.90
21149;DHT22;10732;51.472;6.466;2022-12-24T06:06:37;9.60;99.90
21149;DHT22;10732;51.472;6.466;2022-12-24T06:09:03;9.50;99.90
21149;DHT22;10732;51.472;6.466;2022-12-24T06:11:28;9.50;99.90
21149;DHT22;10732;51.472;6.466;2022-12-24T06:13:54;9.60;99.90
21149;DHT22;10732;51.472;6.466;2022-12-24T06:16:22;9.50;99.90
21149;DHT22;10732;51.472;6.466;2022-12-24T06:18:47;9.50;99.90
21149;DHT22;10732;51.472;6.466;2022-12-24T06:21:13;9.60;99.90
21149;DHT22;10732;51.472;6.466;2022-12-24T06:23:41;9.50;99.90
21149;DHT22;10732;51.472;6.466;2022-12-24T06:26:09;9.50;99.90
21149;DHT22;10732;51.472;6.466;2022-12-24T06:28:36;9.50;99.90
21149;DHT22;10732;51.472;6.466;2022-12-24T06:31:03;9.50;99.90
21149;DHT22;10732;51.472;6.466;2022-12-24T06:33:33;9.60;99.90
21149;DHT22;10732;51.472;6.466;2022-12-24T06:35:58;9.60;99.90
21149;DHT22;10732;51.472;6.466;2022-12-24T06:38:24;9.60;99.90
21149;DHT22;10732;51.472;6.466;2022-12-24T06:40:50;9.60;99.90
21149;DHT22;10732;51.472;6.466;2022-12-24T06:43:16;9.60;99.90
21149;DHT22;10732;51.472;6.466;2022-12-24T06:45:45;9.60;99.90
21149;DHT22;10732;51.472;6.466;2022-12-24T06:48:11;9.70;99.90
21149;DHT22;10732;51.472;6.466;2022-12-24T06:50:37;9.70;99.90
21149;DHT22;10732;51.472;6.466;2022-12-24T06:53:03;9.60;99.90
21149;DHT22;10732;51.472;6.466;2022-12-24T06:55:29;9.70;99.90
21149;DHT22;10732;51.472;6.466;2022-12-24T06:57:54;9.60;99.90
21149;DHT22;10732;51.472;6.466;2022-12-24T07:00:20;9.50;99.90
21149;DHT22;10732;51.472;6.466;2022-12-24T07:02:48;9.50;99.90
21149;DHT22;10732;51.472;6.466;2022-12-24T07:05:14;9.40;99.90
21149;DHT22;10732;51.472;6.466;2022-12-24T07:07:41;9.30;99.90
21149;DHT22;10732;51.472;6.466;2022-12-24T07:10:15;9.20;99.90
21149;DHT22;10732;51.472;6.466;2022-12-24T07:12:41;9.20;99.90
21149;DHT22;10732;51.472;6.466;2022-12-24T07:15:07;9.10;99.90
21149;DHT22;10732;51.472;6.466;2022-12-24T07:17:33;9.10;99.90
21149;DHT22;10732;51.472;6.466;2022-12-24T07:19:58;9.10;99.90
21149;DHT22;10732;51.472;6.466;2022-12-24T07:22:24;9.10;99.90
21149;DHT22;10732;51.472;6.466;2022-12-24T07:24:49;9.00;99.90
21149;DHT22;10732;51.472;6.466;2022-12-24T07:27:15;9.00;99.90
21149;DHT22;10732;51.472;6.466;2022-12-24T07:29:41;8.90;99.90
21149;DHT22;10732;51.472;6.466;2022-12-24T07:32:07;8.90;99.90
21149;DHT22;10732;51.472;6.466;2022-12-24T07:34:32;8.90;99.90
21149;DHT22;10732;51.472;6.466;2022-12-24T07:36:58;8.90;99.90
21149;DHT22;10732;51.472;6.466;2022-12-24T07:39:23;8.90;99.90
21149;DHT22;10732;51.472;6.466;2022-12-24T07:41:49;9.00;99.90
21149;DHT22;10732;51.472;6.466;2022-12-24T07:44:15;9.00;99.90
21149;DHT22;10732;51.472;6.466;2022-12-24T07:46:41;9.10;99.90
21149;DHT22;10732;51.472;6.466;2022-12-24T07:49:07;9.20;99.90
21149;DHT22;10732;51.472;6.466;2022-12-24T07:51:33;9.20;99.90
21149;DHT22;10732;51.472;6.466;2022-12-24T07:53:58;9.30;99.90
21149;DHT22;10732;51.472;6.466;2022-12-24T07:56:24;9.30;99.90
21149;DHT22;10732;51.472;6.466;2022-12-24T07:58:50;9.30;99.90
21149;DHT22;10732;51.472;6.466;2022-12-24T08:01:16;9.40;99.90
21149;DHT22;10732;51.472;6.466;2022-12-24T08:03:42;9.40;99.90
21149;DHT22;10732;51.472;6.466;2022-12-24T08:06:08;9.40;99.90
21149;DHT22;10732;51.472;6.466;2022-12-24T08:08:35;9.40;99.90
21149;DHT22;10732;51.472;6.466;2022-12-24T08:11:02;9.40;99.90
21149;DHT22;10732;51.472;6.466;2022-12-24T08:13:29;9.40;99.90
21149;DHT22;10732;51.472;6.466;2022-12-24T08:15:55;9.40;99.90
21149;DHT22;10732;51.472;6.466;2022-12-24T08:18:20;9.40;99.90
21149;DHT22;10732;51.472;6.466;2022-12-24T08:20:46;9.40;99.90
21149;DHT22;10732;51.472;6.466;2022-12-24T08:23:11;9.40;99.90
21149;DHT22;10732;51.472;6.466;2022-12-24T08:25:41;9.40;99.90
21149;DHT22;10732;51.472;6.466;2022-12-24T08:28:07;9.50;99.90
21149;DHT22;10732;51.472;6.466;2022-12-24T08:30:33;9.50;99.90
21149;DHT22;10732;51.472;6.466;2022-12-24T08:32:59;9.50;99.90
21149;DHT22;10732;51.472;6.466;2022-12-24T08:35:24;9.50;99.90
21149;DHT22;10732;51.472;6.466;2022-12-24T08:37:50;9.40;99.90
21149;DHT22;10732;51.472;6.466;2022-12-24T08:40:15;9.50;99.90
21149;DHT22;10732;51.472;6.466;2022-12-24T08:42:41;9.40;99.90
21149;DHT22;10732;51.472;6.466;2022-12-24T08:45:07;9.40;99.90
21149;DHT22;10732;51.472;6.466;2022-12-24T08:47:32;9.40;99.90
21149;DHT22;10732;51.472;6.466;2022-12-24T08:49:58;9.50;99.90
21149;DHT22;10732;51.472;6.466;2022-12-24T08:52:23;9.50;99.90
21149;DHT22;10732;51.472;6.466;2022-12-24T08:54:49;9.60;99.90
21149;DHT22;10732;51.472;6.466;2022-12-24T08:57:14;9.60;99.90
21149;DHT22;10732;51.472;6.466;2022-12-24T08:59:40;9.60;99.90
21149;DHT22;10732;51.472;6.466;2022-12-24T09:02:05;9.70;99.90
21149;DHT22;10732;51.472;6.466;2022-12-24T09:04:31;9.80;99.90
21149;DHT22;10732;51.472;6.466;2022-12-24T09:06:56;9.80;99.90
21149;DHT22;10732;51.472;6.466;2022-12-24T09:09:22;9.90;99.90
21149;DHT22;10732;51.472;6.466;2022-12-24T09:11:47;9.90;99.90
21149;DHT22;10732;51.472;6.466;2022-12-24T09:14:13;9.90;99.90
21149;DHT22;10732;51.472;6.466;2022-12-24T09:16:38;9.90;99.90
21149;DHT22;10732;51.472;6.466;2022-12-24T09:19:04;10.00;99.90
21149;DHT22;10732;51.472;6.466;2022-12-24T09:21:29;10.00;99.90
21149;DHT22;10732;51.472;6.466;2022-12-24T09:23:55;10.00;99.90
21149;DHT22;10732;51.472;6.466;2022-12-24T09:26:23;10.10;99.90
21149;DHT22;10732;51.472;6.466;2022-12-24T09:28:50;10.20;99.90
21149;DHT22;10732;51.472;6.466;2022-12-24T09:31:17;10.20;99.90
21149;DHT22;10732;51.472;6.466;2022-12-24T09:33:44;10.40;99.90
21149;DHT22;10732;51.472;6.466;2022-12-24T09:36:11;10.40;99.90
21149;DHT22;10732;51.472;6.466;2022-12-24T09:38:37;10.40;99.90
21149;DHT22;10732;51.472;6.466;2022-12-24T09:41:15;10.40;99.90
21149;DHT22;10732;51.472;6.466;2022-12-24T09:43:46;10.40;99.90
21149;DHT22;10732;51.472;6.466;2022-12-24T09:48:50;10.40;99.90
21149;DHT22;10732;51.472;6.466;2022-12-24T09:51:35;10.50;99.90
21149;DHT22;10732;51.472;6.466;2022-12-24T09:54:25;10.60;99.90
21149;DHT22;10732;51.472;6.466;2022-12-24T09:56:53;10.80;99.90
21149;DHT22;10732;51.472;6.466;2022-12-24T09:59:24;10.80;99.90
21149;DHT22;10732;51.472;6.466;2022-12-24T10:01:52;10.80;99.90
21149;DHT22;10732;51.472;6.466;2022-12-24T10:04:22;10.80;99.90
21149;DHT22;10732;51.472;6.466;2022-12-24T10:12:36;11.00;99.90
21149;DHT22;10732;51.472;6.466;2022-12-24T10:15:28;11.10;99.90
21149;DHT22;10732;51.472;6.466;2022-12-24T10:20:49;10.90;99.90
21149;DHT22;10732;51.472;6.466;2022-12-24T10:26:14;10.90;99.90
21149;DHT22;10732;51.472;6.466;2022-12-24T10:29:19;10.90;99.90
21149;DHT22;10732;51.472;6.466;2022-12-24T10:32:00;11.00;99.90
21149;DHT22;10732;51.472;6.466;2022-12-24T10:34:31;11.10;99.90
21149;DHT22;10732;51.472;6.466;2022-12-24T10:36:58;11.20;99.90
21149;DHT22;10732;51.472;6.466;2022-12-24T10:39:25;11.30;99.90
21149;DHT22;10732;51.472;6.466;2022-12-24T10:41:54;11.30;99.90
21149;DHT22;10732;51.472;6.466;2022-12-24T10:44:25;11.30;99.90
21149;DHT22;10732;51.472;6.466;2022-12-24T10:46:51;11.20;99.90
21149;DHT22;10732;51.472;6.466;2022-12-24T10:49:24;11.20;99.90
21149;DHT22;10732;51.472;6.466;2022-12-24T10:51:56;11.20;99.90
21149;DHT22;10732;51.472;6.466;2022-12-24T10:54:26;11.20;99.90
21149;DHT22;10732;51.472;6.466;2022-12-24T10:56:57;11.20;99.90
21149;DHT22;10732;51.472;6.466;2022-12-24T10:59:26;11.10;99.90
21149;DHT22;10732;51.472;6.466;2022-12-24T11:01:52;11.10;99.90
21149;DHT22;10732;51.472;6.466;2022-12-24T11:04:29;11.20;99.90
21149;DHT22;10732;51.472;6.466;2022-12-24T11:07:03;11.20;99.90
21149;DHT22;10732;51.472;6.466;2022-12-24T11:09:35;11.40;99.90
21149;DHT22;10732;51.472;6.466;2022-12-24T11:12:03;11.90;99.90
21149;DHT22;10732;51.472;6.466;2022-12-24T11:14:36;12.20;99.90
21149;DHT22;10732;51.472;6.466;2022-12-24T11:17:03;12.20;99.90
21149;DHT22;10732;51.472;6.466;2022-12-24T11:19:37;12.20;99.90
21149;DHT22;10732;51.472;6.466;2022-12-24T11:22:17;12.60;99.90
21149;DHT22;10732;51.472;6.466;2022-12-24T11:24:44;12.40;99.90
21149;DHT22;10732;51.472;6.466;2022-12-24T11:27:30;12.40;99.90
21149;DHT22;10732;51.472;6.466;2022-12-24T11:33:15;11.90;99.90
21149;DHT22;10732;51.472;6.466;2022-12-24T11:35:39;11.70;99.90
21149;DHT22;10732;51.472;6.466;2022-12-24T11:40:46;11.40;99.90
21149;DHT22;10732;51.472;6.466;2022-12-24T11:45:53;11.50;99.90
21149;DHT22;10732;51.472;6.466;2022-12-24T11:48:31;11.60;99.90
21149;DHT22;10732;51.472;6.466;2022-12-24T11:51:02;11.50;99.90
21149;DHT22;10732;51.472;6.466;2022-12-24T11:59:06;11.30;99.90
21149;DHT22;10732;51.472;6.466;2022-12-24T12:01:38;11.30;99.90
21149;DHT22;10732;51.472;6.466;2022-12-24T12:04:16;11.40;99.90
21149;DHT22;10732;51.472;6.466;2022-12-24T12:06:59;11.40;99.90
21149;DHT22;10732;51.472;6.466;2022-12-24T12:09:45;11.30;99.90
21149;DHT22;10732;51.472;6.466;2022-12-24T12:12:23;11.20;99.90
21149;DHT22;10732;51.472;6.466;2022-12-24T12:14:59;11.20;99.90
21149;DHT22;10732;51.472;6.466;2022-12-24T12:17:29;11.30;99.90
21149;DHT22;10732;51.472;6.466;2022-12-24T12:19:57;11.30;99.90
21149;DHT22;10732;51.472;6.466;2022-12-24T12:25:45;11.50;99.90
21149;DHT22;10732;51.472;6.466;2022-12-24T12:28:25;11.50;99.90
21149;DHT22;10732;51.472;6.466;2022-12-24T12:33:38;11.30;99.90
21149;DHT22;10732;51.472;6.466;2022-12-24T12:36:07;11.30;99.90
21149;DHT22;10732;51.472;6.466;2022-12-24T12:38:33;11.20;99.90
21149;DHT22;10732;51.472;6.466;2022-12-24T12:44:20;11.30;99.90
21149;DHT22;10732;51.472;6.466;2022-12-24T12:46:54;11.30;99.90
21149;DHT22;10732;51.472;6.466;2022-12-24T12:49:58;11.50;99.90
21149;DHT22;10732;51.472;6.466;2022-12-24T12:55:36;11.50;99.90
21149;DHT22;10732;51.472;6.466;2022-12-24T13:01:23;11.30;99.90
21149;DHT22;10732;51.472;6.466;2022-12-24T13:07:07;11.40;99.90
21149;DHT22;10732;51.472;6.466;2022-12-24T13:12:33;11.20;99.90
21149;DHT22;10732;51.472;6.466;2022-12-24T13:20:11;11.40;99.90
21149;DHT22;10732;51.472;6.466;2022-12-24T13:22:39;11.30;99.90
21149;DHT22;10732;51.472;6.466;2022-12-24T13:25:20;11.20;99.90
21149;DHT22;10732;51.472;6.466;2022-12-24T13:27:46;11.10;99.90
21149;DHT22;10732;51.472;6.466;2022-12-24T13:30:34;11.00;99.90
21149;DHT22;10732;51.472;6.466;2022-12-24T13:32:59;11.00;99.90
21149;DHT22;10732;51.472;6.466;2022-12-24T13:35:28;11.10;99.90
21149;DHT22;10732;51.472;6.466;2022-12-24T13:40:51;11.30;99.90
21149;DHT22;10732;51.472;6.466;2022-12-24T13:43:17;11.40;99.90
21149;DHT22;10732;51.472;6.466;2022-12-24T13:45:50;11.30;99.90
21149;DHT22;10732;51.472;6.466;2022-12-24T13:48:32;11.20;99.90
21149;DHT22;10732;51.472;6.466;2022-12-24T13:51:18;11.30;99.90
21149;DHT22;10732;51.472;6.466;2022-12-24T13:53:47;11.20;99.90
21149;DHT22;10732;51.472;6.466;2022-12-24T13:58:43;11.00;99.90
21149;DHT22;10732;51.472;6.466;2022-12-24T14:01:14;10.90;99.90
21149;DHT22;10732;51.472;6.466;2022-12-24T14:03:49;10.80;99.90
21149;DHT22;10732;51.472;6.466;2022-12-24T14:06:39;10.80;99.90
21149;DHT22;10732;51.472;6.466;2022-12-24T14:09:07;10.70;99.90
21149;DHT22;10732;51.472;6.466;2022-12-24T14:14:31;10.60;99.90
21149;DHT22;10732;51.472;6.466;2022-12-24T14:19:48;10.50;99.90
21149;DHT22;10732;51.472;6.466;2022-12-24T14:22:36;10.40;99.90
21149;DHT22;10732;51.472;6.466;2022-12-24T14:25:13;10.40;99.90
21149;DHT22;10732;51.472;6.466;2022-12-24T14:32:47;10.30;99.90
21149;DHT22;10732;51.472;6.466;2022-12-24T14:35:14;10.20;99.90
21149;DHT22;10732;51.472;6.466;2022-12-24T14:37:55;10.10;99.90
21149;DHT22;10732;51.472;6.466;2022-12-24T14:40:26;10.10;99.90
21149;DHT22;10732;51.472;6.466;2022-12-24T14:45:41;10.20;99.90
21149;DHT22;10732;51.472;6.466;2022-12-24T14:48:24;10.10;99.90
21149;DHT22;10732;51.472;6.466;2022-12-24T14:56:18;10.00;99.90
21149;DHT22;10732;51.472;6.466;2022-12-24T14:58:45;10.00;99.90
21149;DHT22;10732;51.472;6.466;2022-12-24T15:01:25;10.00;99.90
21149;DHT22;10732;51.472;6.466;2022-12-24T15:06:55;9.90;99.90
21149;DHT22;10732;51.472;6.466;2022-12-24T15:09:24;9.80;99.90
21149;DHT22;10732;51.472;6.466;2022-12-24T15:11:52;9.70;99.90
21149;DHT22;10732;51.472;6.466;2022-12-24T15:14:20;9.60;99.90
21149;DHT22;10732;51.472;6.466;2022-12-24T15:16:55;9.50;99.90
21149;DHT22;10732;51.472;6.466;2022-12-24T15:19:35;9.40;99.90
21149;DHT22;10732;51.472;6.466;2022-12-24T15:22:03;9.30;99.90
21149;DHT22;10732;51.472;6.466;2022-12-24T15:24:42;9.20;99.90
21149;DHT22;10732;51.472;6.466;2022-12-24T15:27:17;9.10;99.90
21149;DHT22;10732;51.472;6.466;2022-12-24T15:29:45;8.90;99.90
21149;DHT22;10732;51.472;6.466;2022-12-24T15:32:13;8.80;99.90
21149;DHT22;10732;51.472;6.466;2022-12-24T15:34:41;8.70;99.90
21149;DHT22;10732;51.472;6.466;2022-12-24T15:39:52;8.30;99.90
21149;DHT22;10732;51.472;6.466;2022-12-24T15:42:19;8.10;99.90
21149;DHT22;10732;51.472;6.466;2022-12-24T15:44:58;8.00;99.90
21149;DHT22;10732;51.472;6.466;2022-12-24T15:47:45;7.90;99.90
21149;DHT22;10732;51.472;6.466;2022-12-24T15:50:29;7.80;99.90
21149;DHT22;10732;51.472;6.466;2022-12-24T15:53:07;7.60;99.90
21149;DHT22;10732;51.472;6.466;2022-12-24T15:55:47;7.40;99.90
21149;DHT22;10732;51.472;6.466;2022-12-24T15:58:27;7.30;99.90
21149;DHT22;10732;51.472;6.466;2022-12-24T16:03:32;7.10;99.90
21149;DHT22;10732;51.472;6.466;2022-12-24T16:06:09;7.00;99.90
21149;DHT22;10732;51.472;6.466;2022-12-24T16:08:42;6.90;99.90
21149;DHT22;10732;51.472;6.466;2022-12-24T16:13:39;6.80;99.90
21149;DHT22;10732;51.472;6.466;2022-12-24T16:16:07;6.70;99.90
21149;DHT22;10732;51.472;6.466;2022-12-24T16:18:50;6.70;99.90
21149;DHT22;10732;51.472;6.466;2022-12-24T16:21:31;6.90;99.90
21149;DHT22;10732;51.472;6.466;2022-12-24T16:24:09;7.20;99.90
21149;DHT22;10732;51.472;6.466;2022-12-24T16:26:37;7.20;99.90
21149;DHT22;10732;51.472;6.466;2022-12-24T16:29:02;7.40;99.90
21149;DHT22;10732;51.472;6.466;2022-12-24T16:31:36;7.60;99.90
21149;DHT22;10732;51.472;6.466;2022-12-24T16:34:04;7.50;99.90
21149;DHT22;10732;51.472;6.466;2022-12-24T16:36:30;7.60;99.90
21149;DHT22;10732;51.472;6.466;2022-12-24T16:38:57;7.40;99.90
21149;DHT22;10732;51.472;6.466;2022-12-24T16:41:41;7.40;99.90
21149;DHT22;10732;51.472;6.466;2022-12-24T16:44:26;7.40;99.90
21149;DHT22;10732;51.472;6.466;2022-12-24T16:46:52;7.40;99.90
21149;DHT22;10732;51.472;6.466;2022-12-24T16:49:19;7.10;99.90
21149;DHT22;10732;51.472;6.466;2022-12-24T16:51:45;7.10;99.90
21149;DHT22;10732;51.472;6.466;2022-12-24T16:54:12;7.20;99.90
21149;DHT22;10732;51.472;6.466;2022-12-24T16:56:38;7.30;99.90
21149;DHT22;10732;51.472;6.466;2022-12-24T16:59:04;7.30;99.90
21149;DHT22;10732;51.472;6.466;2022-12-24T17:01:29;7.10;99.90
21149;DHT22;10732;51.472;6.466;2022-12-24T17:03:55;7.40;99.90
21149;DHT22;10732;51.472;6.466;2022-12-24T17:06:20;7.20;99.90
21149;DHT22;10732;51.472;6.466;2022-12-24T17:08:47;7.20;99.90
21149;DHT22;10732;51.472;6.466;2022-12-24T17:11:13;6.90;99.90
21149;DHT22;10732;51.472;6.466;2022-12-24T17:13:38;6.80;99.90
21149;DHT22;10732;51.472;6.466;2022-12-24T17:16:05;6.50;99.90
21149;DHT22;10732;51.472;6.466;2022-12-24T17:18:30;6.40;99.90
21149;DHT22;10732;51.472;6.466;2022-12-24T17:21:00;6.30;99.90
21149;DHT22;10732;51.472;6.466;2022-12-24T17:23:26;6.30;99.90
21149;DHT22;10732;51.472;6.466;2022-12-24T17:25:52;6.20;99.90
21149;DHT22;10732;51.472;6.466;2022-12-24T17:28:17;6.20;99.90
21149;DHT22;10732;51.472;6.466;2022-12-24T17:30:43;6.20;99.90
21149;DHT22;10732;51.472;6.466;2022-12-24T17:33:08;6.20;99.90
21149;DHT22;10732;51.472;6.466;2022-12-24T17:35:38;6.20;99.90
21149;DHT22;10732;51.472;6.466;2022-12-24T17:38:04;6.10;99.90
21149;DHT22;10732;51.472;6.466;2022-12-24T17:40:29;6.10;99.90
21149;DHT22;10732;51.472;6.466;2022-12-24T17:42:55;6.10;99.90